KBYS

Bicycle Lake AAF Airport

Fort Irwin/Barstow, California, USA
METAR KBYS 141655Z AUTO 06002KT 10SM FEW190 05/M04 A3033 RMK AO2 SLP297 WND DATA ESTMD T00461042
Observed Flight Rules
Dec-14 @ 16:55 UTC (9 minutes ago) Visual Flight Rules
Wind Visibility Clouds
60° at 2 knots 10 miles
  • Few at 19,000' AGL
Temperatures Readings
Current 5°C / 41°F
Dewpoint -4°C / 25°F
Humidity 53%
Altimeter 30.33" Hg
Pressure 1029.7 hPa
Elevation 716
METAR KBYS 141655Z AUTO 06002KT 10SM FEW190 05/M04 A3033 RMK AO2 SLP297 WND DATA ESTMD T00461042
Observed Flight Rules
Dec-14 @ 16:55 UTC
(9 minutes ago)
VFR
Wind Visibility
60° at 2 knots 10 miles
Clouds
  • Few at 19,000' AGL
Temperature Dewpoint
5°C / 41°F -4°C / 25°F
Humidity Altimeter Pressure
53% 30.33" Hg 1029.7 hPa